createdAt,value
2022-10-29T00:00:57.247Z,2.90
2022-10-29T00:03:25.279Z,2.93
2022-10-29T00:06:04.450Z,2.93
2022-10-29T00:08:34.805Z,3.00
2022-10-29T00:11:20.365Z,2.80
2022-10-29T00:13:52.552Z,2.53
2022-10-29T00:16:23.131Z,2.60
2022-10-29T00:18:50.023Z,3.07
2022-10-29T00:21:20.192Z,2.80
2022-10-29T00:23:48.098Z,3.17
2022-10-29T00:26:15.903Z,2.77
2022-10-29T00:28:42.908Z,3.00
2022-10-29T00:31:15.912Z,2.90
2022-10-29T00:33:43.342Z,2.93
2022-10-29T00:36:16.085Z,2.70
2022-10-29T00:38:43.480Z,2.50
2022-10-29T00:41:16.531Z,3.40
2022-10-29T00:44:15.347Z,2.80
2022-10-29T00:46:47.275Z,3.20
2022-10-29T00:49:15.675Z,3.03
2022-10-29T00:51:42.827Z,2.73
2022-10-29T00:54:12.898Z,2.60
2022-10-29T00:57:13.693Z,3.03
2022-10-29T00:59:42.656Z,3.10
2022-10-29T01:02:10.544Z,3.47
2022-10-29T01:04:38.968Z,3.73
2022-10-29T01:07:06.471Z,3.33
2022-10-29T01:09:33.377Z,3.20
2022-10-29T01:12:21.517Z,3.33
2022-10-29T01:15:07.095Z,3.33
2022-10-29T01:18:07.544Z,2.10
2022-10-29T01:21:14.365Z,2.67
2022-10-29T01:24:37.155Z,2.50
2022-10-29T01:27:26.452Z,3.00
2022-10-29T01:30:21.447Z,3.57
2022-10-29T01:32:54.169Z,3.23
2022-10-29T01:35:30.228Z,2.93
2022-10-29T01:38:11.454Z,2.90
2022-10-29T01:41:15.034Z,2.87
2022-10-29T01:43:52.104Z,2.60
2022-10-29T01:46:42.589Z,3.07
2022-10-29T01:49:22.705Z,3.10
2022-10-29T01:51:50.959Z,2.87
2022-10-29T01:54:17.764Z,3.37
2022-10-29T01:56:52.660Z,3.43
2022-10-29T01:59:35.227Z,3.20
2022-10-29T02:02:39.552Z,3.60
2022-10-29T02:05:44.722Z,3.83
2022-10-29T02:08:20.206Z,3.27
2022-10-29T02:11:23.842Z,3.67
2022-10-29T02:14:07.353Z,4.00
2022-10-29T02:16:34.831Z,4.23
2022-10-29T02:19:02.082Z,3.47
2022-10-29T02:21:28.850Z,4.13
2022-10-29T02:23:55.700Z,4.20
2022-10-29T02:26:22.583Z,3.80
2022-10-29T02:28:49.428Z,4.20
2022-10-29T02:31:16.250Z,3.40
2022-10-29T02:33:43.042Z,3.60
2022-10-29T02:36:09.951Z,2.93
2022-10-29T02:38:36.751Z,3.23
2022-10-29T02:41:03.536Z,3.23
2022-10-29T02:43:30.327Z,3.60
2022-10-29T02:46:19.160Z,3.50
2022-10-29T02:48:46.400Z,3.47
2022-10-29T02:51:13.543Z,3.30
2022-10-29T02:53:40.645Z,3.73
2022-10-29T02:56:07.944Z,3.40
2022-10-29T02:58:34.876Z,4.10
2022-10-29T03:01:02.189Z,3.63
2022-10-29T03:03:29.503Z,3.73
2022-10-29T03:05:56.292Z,3.67
2022-10-29T03:08:23.138Z,2.73
2022-10-29T03:10:49.928Z,3.80
2022-10-29T03:13:17.914Z,4.03
2022-10-29T03:15:46.234Z,3.00
2022-10-29T03:18:13.065Z,2.60
2022-10-29T03:20:39.951Z,2.60
2022-10-29T03:23:06.779Z,2.47
2022-10-29T03:25:33.607Z,2.77
2022-10-29T03:28:00.371Z,3.20
2022-10-29T03:30:27.198Z,3.47
2022-10-29T03:32:54.394Z,3.80
2022-10-29T03:35:21.715Z,3.47
2022-10-29T03:37:52.464Z,4.40
2022-10-29T03:40:20.282Z,3.67
2022-10-29T03:42:47.068Z,2.60
2022-10-29T03:45:14.213Z,3.07
2022-10-29T03:47:41.063Z,4.57
2022-10-29T03:50:08.887Z,4.40
2022-10-29T03:52:35.997Z,3.40
2022-10-29T03:55:03.283Z,2.70
2022-10-29T03:57:30.102Z,2.30
2022-10-29T03:59:56.936Z,2.23
2022-10-29T04:02:24.789Z,2.40
2022-10-29T04:04:51.627Z,3.50
2022-10-29T04:07:18.825Z,4.20
2022-10-29T04:09:45.665Z,4.50
2022-10-29T04:12:12.423Z,4.80
2022-10-29T04:14:44.473Z,4.80
2022-10-29T04:17:12.722Z,4.23
2022-10-29T04:19:40.449Z,4.13
2022-10-29T04:30:27.874Z,3.47
2022-10-29T04:32:59.578Z,3.50
2022-10-29T04:35:28.858Z,3.20
2022-10-29T04:37:55.790Z,3.00
2022-10-29T04:40:24.757Z,3.27
2022-10-29T04:42:51.586Z,2.97
2022-10-29T04:45:18.756Z,2.80
2022-10-29T04:47:45.958Z,2.47
2022-10-29T04:50:12.786Z,2.40
2022-10-29T04:52:39.630Z,2.30
2022-10-29T04:55:06.804Z,2.57
2022-10-29T04:57:33.617Z,2.63
2022-10-29T05:00:00.428Z,2.53
2022-10-29T05:02:27.219Z,2.70
2022-10-29T05:04:54.007Z,2.80
2022-10-29T05:07:20.767Z,2.60
2022-10-29T05:09:47.572Z,3.00
2022-10-29T05:12:14.357Z,3.07
2022-10-29T05:14:41.136Z,4.13
2022-10-29T05:19:39.666Z,3.97
2022-10-29T05:22:06.450Z,3.83
2022-10-29T05:24:33.217Z,3.60
2022-10-29T05:27:00.088Z,4.00
2022-10-29T05:29:26.891Z,3.97
2022-10-29T05:31:54.587Z,4.53
2022-10-29T05:34:21.581Z,4.20
2022-10-29T05:36:48.603Z,3.80
2022-10-29T05:39:15.651Z,3.70
2022-10-29T05:41:42.432Z,3.93
2022-10-29T05:44:09.648Z,3.70
2022-10-29T05:46:36.514Z,4.20
2022-10-29T05:49:04.168Z,3.40
2022-10-29T05:51:31.029Z,3.70
2022-10-29T05:53:57.814Z,3.70
2022-10-29T05:56:24.607Z,3.60
2022-10-29T05:58:51.708Z,3.50
2022-10-29T06:01:19.846Z,4.30
2022-10-29T06:03:47.419Z,3.83
2022-10-29T06:06:14.312Z,3.63
2022-10-29T06:08:41.183Z,3.60
2022-10-29T06:11:08.145Z,3.73
2022-10-29T06:13:35.990Z,3.53
2022-10-29T06:16:03.042Z,3.70
2022-10-29T06:18:30.064Z,3.63
2022-10-29T06:21:00.548Z,3.23
2022-10-29T06:23:28.642Z,4.83
2022-10-29T06:25:55.459Z,3.17
2022-10-29T06:28:22.278Z,3.60
2022-10-29T06:30:50.432Z,3.43
2022-10-29T06:33:18.677Z,2.97
2022-10-29T06:35:45.999Z,3.13
2022-10-29T06:38:13.244Z,3.10
2022-10-29T06:40:41.595Z,3.20
2022-10-29T06:43:11.747Z,3.40
2022-10-29T06:45:38.679Z,3.77
2022-10-29T06:48:06.084Z,3.73
2022-10-29T06:50:33.034Z,2.87
2022-10-29T06:53:02.764Z,3.33
2022-10-29T06:55:30.164Z,3.27
2022-10-29T06:58:02.106Z,3.00
2022-10-29T07:00:30.284Z,3.57
2022-10-29T07:02:58.028Z,3.50
2022-10-29T07:05:26.419Z,3.90
2022-10-29T07:07:58.405Z,3.20
2022-10-29T07:10:28.956Z,3.30
2022-10-29T07:12:56.147Z,3.10
2022-10-29T07:15:27.233Z,3.17
2022-10-29T07:18:06.064Z,3.53
2022-10-29T07:20:36.512Z,3.33
2022-10-29T07:23:03.288Z,3.70
2022-10-29T07:25:31.882Z,8.37
2022-10-29T07:28:12.278Z,7.67
2022-10-29T07:30:40.135Z,8.43
2022-10-29T07:33:07.128Z,7.97
2022-10-29T07:35:34.860Z,7.23
2022-10-29T07:38:08.784Z,7.63
2022-10-29T07:40:38.907Z,7.23
2022-10-29T07:43:05.950Z,6.60
2022-10-29T07:45:33.713Z,6.80
2022-10-29T07:48:03.124Z,6.53
2022-10-29T07:50:31.520Z,5.33
2022-10-29T07:53:03.008Z,5.27
2022-10-29T07:58:07.956Z,5.63
2022-10-29T08:00:37.721Z,5.30
2022-10-29T08:03:05.111Z,5.27
2022-10-29T08:05:32.149Z,5.87
2022-10-29T08:08:00.043Z,6.00
2022-10-29T08:10:28.441Z,5.40
2022-10-29T08:12:58.943Z,5.67
2022-10-29T08:15:27.972Z,4.90
2022-10-29T08:17:55.280Z,5.57
2022-10-29T08:20:25.063Z,5.47
2022-10-29T08:22:51.925Z,5.10
2022-10-29T08:25:18.962Z,4.70
2022-10-29T08:27:45.876Z,4.47
2022-10-29T08:30:14.183Z,4.20
2022-10-29T08:32:47.511Z,4.07
2022-10-29T08:35:15.289Z,4.23
2022-10-29T08:37:44.287Z,3.90
2022-10-29T08:40:30.412Z,3.63
2022-10-29T08:43:34.572Z,3.83
2022-10-29T08:46:01.705Z,3.20
2022-10-29T08:48:34.250Z,3.87
2022-10-29T08:51:30.455Z,3.70
2022-10-29T08:54:25.480Z,3.80
2022-10-29T08:56:54.144Z,3.17
2022-10-29T08:59:24.264Z,3.23
2022-10-29T09:01:53.655Z,3.20
2022-10-29T09:04:31.692Z,3.00
2022-10-29T09:07:26.048Z,3.70
2022-10-29T09:10:20.587Z,4.00
2022-10-29T09:13:25.960Z,4.73
2022-10-29T09:16:24.367Z,3.80
2022-10-29T09:19:03.491Z,6.63
2022-10-29T09:21:48.896Z,9.80
2022-10-29T09:24:30.653Z,4.87
2022-10-29T09:27:09.717Z,4.13
2022-10-29T09:30:03.353Z,3.80
2022-10-29T09:32:47.782Z,3.40
2022-10-29T09:35:19.282Z,3.90
2022-10-29T09:37:59.380Z,4.13
2022-10-29T09:40:34.342Z,4.30
2022-10-29T09:43:13.268Z,3.90
2022-10-29T09:45:48.811Z,3.63
2022-10-29T09:48:31.423Z,3.30
2022-10-29T09:51:11.210Z,3.00
2022-10-29T09:53:37.994Z,3.10
2022-10-29T09:56:08.376Z,2.93
2022-10-29T09:58:41.636Z,3.10
2022-10-29T10:01:08.589Z,2.50
2022-10-29T10:03:45.782Z,2.90
2022-10-29T10:06:16.190Z,2.80
2022-10-29T10:09:04.470Z,3.13
2022-10-29T10:11:40.042Z,2.43
2022-10-29T10:14:20.712Z,2.60
2022-10-29T10:17:00.435Z,3.13
2022-10-29T10:19:31.197Z,3.53
2022-10-29T10:22:04.529Z,2.97
2022-10-29T10:24:38.212Z,2.97
2022-10-29T10:27:20.169Z,3.00
2022-10-29T10:30:04.939Z,3.17
2022-10-29T10:32:32.407Z,2.85
2022-10-29T10:34:59.192Z,3.15
2022-10-29T10:37:26.090Z,2.80
2022-10-29T10:40:04.850Z,2.92
2022-10-29T10:42:37.131Z,2.72
2022-10-29T10:45:23.027Z,3.28
2022-10-29T10:47:57.427Z,3.75
2022-10-29T10:50:34.013Z,2.70
2022-10-29T10:53:05.970Z,3.30
2022-10-29T10:55:37.937Z,3.00
2022-10-29T10:58:42.939Z,3.13
2022-10-29T11:01:20.689Z,2.78
2022-10-29T11:03:52.017Z,3.13
2022-10-29T11:06:29.878Z,2.95
2022-10-29T11:09:35.929Z,2.85
2022-10-29T11:12:11.695Z,2.83
2022-10-29T11:14:49.009Z,2.70
2022-10-29T11:17:52.916Z,2.72
2022-10-29T11:20:35.681Z,3.72
2022-10-29T11:23:25.503Z,2.85
2022-10-29T11:26:08.175Z,3.08
2022-10-29T11:28:53.970Z,2.88
2022-10-29T11:31:31.087Z,2.85
2022-10-29T11:34:39.226Z,2.60
2022-10-29T11:37:27.770Z,2.80
2022-10-29T11:40:04.460Z,3.25
2022-10-29T11:42:31.399Z,3.00
2022-10-29T11:45:00.967Z,3.05
2022-10-29T11:47:39.660Z,3.25
2022-10-29T11:50:28.228Z,2.80
2022-10-29T11:53:02.576Z,3.08
2022-10-29T11:55:43.279Z,2.88
2022-10-29T11:58:37.974Z,3.53
2022-10-29T12:01:50.462Z,3.30
2022-10-29T12:04:32.843Z,3.20
2022-10-29T12:07:18.344Z,3.17
2022-10-29T12:10:30.419Z,3.10
2022-10-29T12:13:33.299Z,2.90
2022-10-29T12:16:33.834Z,3.00
2022-10-29T12:19:14.957Z,3.53
2022-10-29T12:22:32.134Z,3.15
2022-10-29T12:25:19.018Z,3.47
2022-10-29T12:28:00.895Z,3.13
2022-10-29T12:30:34.685Z,3.20
2022-10-29T12:33:42.073Z,3.42
2022-10-29T12:36:48.931Z,3.30
2022-10-29T12:39:45.555Z,3.83
2022-10-29T12:42:26.269Z,3.22
2022-10-29T12:45:26.149Z,2.80
2022-10-29T12:47:57.294Z,2.83
2022-10-29T12:51:05.653Z,3.47
2022-10-29T12:53:54.031Z,3.10
2022-10-29T12:56:22.883Z,2.90
2022-10-29T12:58:57.051Z,3.47
2022-10-29T13:01:50.017Z,3.20
2022-10-29T13:04:34.161Z,3.20
2022-10-29T13:07:05.174Z,3.17
2022-10-29T13:09:36.491Z,3.10
2022-10-29T13:12:12.358Z,3.30
2022-10-29T13:14:56.450Z,2.88
2022-10-29T13:17:33.077Z,3.38
2022-10-29T13:20:04.772Z,3.20
2022-10-29T13:22:57.130Z,3.30
2022-10-29T13:25:40.355Z,2.85
2022-10-29T13:28:10.053Z,3.63
2022-10-29T13:30:39.871Z,3.38
2022-10-29T13:33:21.926Z,3.00
2022-10-29T13:36:01.225Z,2.85
2022-10-29T13:39:19.476Z,3.28
2022-10-29T13:41:51.167Z,3.33
2022-10-29T13:44:29.068Z,3.13
2022-10-29T13:47:21.630Z,2.53
2022-10-29T13:49:49.489Z,3.30
2022-10-29T13:52:21.670Z,3.15
2022-10-29T13:55:03.033Z,2.95
2022-10-29T13:57:42.745Z,3.35
2022-10-29T14:00:12.114Z,2.90
2022-10-29T14:03:14.964Z,2.88
2022-10-29T14:05:56.084Z,3.65
2022-10-29T14:08:37.856Z,3.20
2022-10-29T14:11:18.225Z,2.60
2022-10-29T14:13:51.219Z,2.95
2022-10-29T14:16:21.969Z,3.10
2022-10-29T14:18:50.736Z,3.50
2022-10-29T14:21:37.864Z,3.53
2022-10-29T14:24:08.297Z,2.70
2022-10-29T14:26:39.653Z,2.83
2022-10-29T14:29:26.046Z,3.22
2022-10-29T14:32:20.077Z,3.17
2022-10-29T14:34:51.660Z,2.70
2022-10-29T14:37:33.498Z,3.08
2022-10-29T14:40:06.322Z,3.20
2022-10-29T14:42:43.088Z,3.17
2022-10-29T14:45:25.343Z,3.20
2022-10-29T14:47:58.327Z,3.88
2022-10-29T14:50:30.096Z,2.80
2022-10-29T14:53:02.054Z,3.20
2022-10-29T14:55:35.312Z,2.97
2022-10-29T14:58:28.650Z,3.17
2022-10-29T15:00:57.329Z,3.42
2022-10-29T15:03:27.288Z,4.47
2022-10-29T15:06:18.897Z,4.47
2022-10-29T15:08:58.152Z,4.85
2022-10-29T15:11:36.569Z,4.20
2022-10-29T15:14:23.736Z,3.45
2022-10-29T15:16:50.560Z,3.47
2022-10-29T15:19:18.104Z,2.90
2022-10-29T15:21:45.387Z,3.23
2022-10-29T15:24:20.753Z,3.03
2022-10-29T15:26:56.516Z,2.63
2022-10-29T15:29:32.206Z,2.90
2022-10-29T15:32:01.067Z,2.93
2022-10-29T15:34:37.558Z,3.03
2022-10-29T15:37:19.635Z,3.40
2022-10-29T15:40:09.501Z,2.73
2022-10-29T15:42:37.170Z,2.87
2022-10-29T15:45:15.685Z,3.50
2022-10-29T15:47:48.281Z,2.77
2022-10-29T15:50:26.495Z,3.33
2022-10-29T15:52:57.576Z,3.17
2022-10-29T15:55:34.401Z,3.13
2022-10-29T15:58:16.419Z,3.60
2022-10-29T16:00:43.794Z,3.43
2022-10-29T16:03:20.103Z,3.90
2022-10-29T16:06:05.623Z,4.20
2022-10-29T16:08:42.104Z,3.67
2022-10-29T16:11:14.455Z,3.57
2022-10-29T16:13:41.842Z,3.70
2022-10-29T16:16:25.509Z,4.83
2022-10-29T16:18:53.312Z,4.30
2022-10-29T16:21:24.255Z,4.53
2022-10-29T16:23:51.757Z,4.40
2022-10-29T16:26:22.829Z,5.07
2022-10-29T16:28:50.170Z,4.27
2022-10-29T16:31:26.175Z,4.53
2022-10-29T16:33:57.501Z,4.80
2022-10-29T16:36:24.940Z,4.03
2022-10-29T16:38:51.712Z,4.17
2022-10-29T16:41:20.119Z,4.23
2022-10-29T16:43:47.849Z,4.47
2022-10-29T16:46:15.441Z,4.20
2022-10-29T16:48:42.275Z,4.50
2022-10-29T16:51:09.233Z,4.50
2022-10-29T16:53:36.070Z,4.90
2022-10-29T16:56:03.460Z,4.73
2022-10-29T16:58:30.274Z,4.10
2022-10-29T17:01:05.832Z,4.43
2022-10-29T17:03:33.169Z,4.70
2022-10-29T17:06:10.645Z,5.33
2022-10-29T17:08:38.214Z,5.00
2022-10-29T17:11:08.724Z,5.13
2022-10-29T17:13:35.952Z,4.70
2022-10-29T17:16:14.616Z,5.20
2022-10-29T17:18:41.470Z,5.47
2022-10-29T17:21:08.278Z,6.03
2022-10-29T17:23:35.076Z,5.43
2022-10-29T17:26:02.243Z,5.17
2022-10-29T17:28:29.450Z,4.87
2022-10-29T17:30:56.247Z,5.13
2022-10-29T17:33:23.087Z,6.00
2022-10-29T17:35:49.892Z,5.40
2022-10-29T17:38:16.685Z,5.43
2022-10-29T17:40:46.096Z,5.03
2022-10-29T17:43:13.245Z,5.13
2022-10-29T17:45:42.115Z,4.90
2022-10-29T17:48:08.926Z,5.60
2022-10-29T17:50:36.236Z,5.40
2022-10-29T17:53:03.413Z,5.23
2022-10-29T17:55:30.480Z,5.23
2022-10-29T17:57:57.480Z,5.20
2022-10-29T18:00:25.330Z,5.20
2022-10-29T18:02:52.146Z,5.37
2022-10-29T18:05:19.462Z,5.40
2022-10-29T18:07:46.268Z,5.37
2022-10-29T18:10:13.112Z,5.00
2022-10-29T18:12:39.920Z,5.60
2022-10-29T18:15:07.392Z,5.70
2022-10-29T18:17:34.249Z,5.37
2022-10-29T18:20:01.123Z,5.77
2022-10-29T18:22:28.167Z,5.23
2022-10-29T18:24:54.983Z,5.27
2022-10-29T18:27:21.754Z,4.77
2022-10-29T18:29:48.624Z,5.70
2022-10-29T18:32:15.685Z,5.80
2022-10-29T18:34:42.507Z,5.60
2022-10-29T18:37:09.301Z,5.60
2022-10-29T18:39:36.135Z,5.97
2022-10-29T18:42:02.953Z,5.27
2022-10-29T18:44:29.831Z,5.37
2022-10-29T18:46:56.609Z,5.37
2022-10-29T18:49:23.557Z,5.03
2022-10-29T18:51:50.356Z,5.93
2022-10-29T18:54:17.250Z,5.80
2022-10-29T18:56:44.174Z,5.40
2022-10-29T18:59:15.541Z,6.10
2022-10-29T19:01:42.487Z,6.70
2022-10-29T19:04:14.023Z,6.07
2022-10-29T19:06:41.096Z,6.17
2022-10-29T19:09:10.728Z,6.40
2022-10-29T19:11:37.808Z,6.30
2022-10-29T19:14:08.023Z,5.83
2022-10-29T19:16:34.990Z,5.97
2022-10-29T19:21:39.090Z,6.40
2022-10-29T19:24:07.326Z,6.37
2022-10-29T19:26:35.899Z,6.10
2022-10-29T19:29:05.153Z,6.33
2022-10-29T19:31:34.708Z,6.23
2022-10-29T19:34:05.925Z,6.80
2022-10-29T19:36:34.823Z,7.17
2022-10-29T19:39:01.964Z,6.47
2022-10-29T19:41:29.314Z,5.93
2022-10-29T19:44:02.183Z,6.57
2022-10-29T19:46:29.943Z,6.53
2022-10-29T19:48:58.312Z,6.23
2022-10-29T19:51:25.175Z,5.67
2022-10-29T19:53:52.015Z,5.43
2022-10-29T19:56:20.526Z,5.93
2022-10-29T19:58:47.386Z,5.93
2022-10-29T20:01:17.119Z,5.57
2022-10-29T20:03:45.106Z,6.13
2022-10-29T20:06:12.306Z,4.97
2022-10-29T20:08:39.453Z,5.63
2022-10-29T20:11:06.677Z,5.17
2022-10-29T20:13:33.819Z,5.70
2022-10-29T20:16:06.147Z,5.63
2022-10-29T20:18:35.388Z,4.87
2022-10-29T20:21:02.285Z,5.40
2022-10-29T20:23:29.213Z,5.43
2022-10-29T20:25:56.000Z,6.17
2022-10-29T20:28:22.874Z,5.67
2022-10-29T20:30:49.706Z,5.20
2022-10-29T20:33:16.482Z,5.57
2022-10-29T20:35:43.285Z,5.80
2022-10-29T20:38:10.082Z,6.07
2022-10-29T20:40:37.054Z,5.43
2022-10-29T20:43:03.924Z,5.97
2022-10-29T20:45:30.789Z,6.60
2022-10-29T20:47:57.800Z,6.23
2022-10-29T20:50:24.840Z,5.57
2022-10-29T20:52:53.596Z,6.23
2022-10-29T20:55:20.448Z,6.33
2022-10-29T20:57:47.307Z,6.30
2022-10-29T21:00:14.591Z,6.03
2022-10-29T21:02:41.487Z,5.73
2022-10-29T21:05:08.856Z,5.60
2022-10-29T21:07:35.737Z,5.73
2022-10-29T21:10:02.520Z,6.03
2022-10-29T21:12:29.286Z,5.97
2022-10-29T21:14:56.076Z,5.53
2022-10-29T21:17:22.868Z,5.50
2022-10-29T21:19:49.741Z,6.07
2022-10-29T21:22:18.820Z,6.50
2022-10-29T21:24:46.111Z,5.60
2022-10-29T21:27:12.897Z,7.13
2022-10-29T21:29:39.745Z,5.97
2022-10-29T21:32:07.753Z,6.17
2022-10-29T21:34:36.009Z,6.27
2022-10-29T21:37:02.793Z,6.17
2022-10-29T21:39:29.846Z,6.40
2022-10-29T21:41:57.030Z,5.67
2022-10-29T21:44:23.804Z,6.03
2022-10-29T21:46:50.658Z,6.13
2022-10-29T21:49:17.455Z,5.50
2022-10-29T21:51:44.227Z,6.23
2022-10-29T21:54:11.040Z,5.93
2022-10-29T21:56:37.842Z,6.00
2022-10-29T21:59:04.602Z,5.57
2022-10-29T22:01:31.539Z,5.83
2022-10-29T22:03:58.427Z,5.80
2022-10-29T22:06:28.325Z,5.80
2022-10-29T22:08:58.577Z,5.83
2022-10-29T22:11:27.260Z,5.80
2022-10-29T22:13:54.944Z,6.10
2022-10-29T22:16:22.801Z,5.90
2022-10-29T22:18:50.893Z,6.40
2022-10-29T22:21:21.342Z,6.13
2022-10-29T22:23:51.571Z,6.27
2022-10-29T22:26:23.847Z,6.80
2022-10-29T22:28:50.698Z,6.67
2022-10-29T22:31:19.875Z,5.70
2022-10-29T22:33:47.328Z,6.37
2022-10-29T22:36:22.126Z,6.50
2022-10-29T22:38:57.530Z,5.70
2022-10-29T22:41:28.540Z,6.40
2022-10-29T22:43:58.787Z,6.53
2022-10-29T22:46:26.960Z,6.47
2022-10-29T22:48:53.927Z,6.50
2022-10-29T22:51:24.520Z,6.20
2022-10-29T22:53:52.768Z,5.70
2022-10-29T22:56:32.707Z,5.70
2022-10-29T22:58:59.992Z,5.77
2022-10-29T23:01:29.855Z,5.67
2022-10-29T23:03:58.664Z,5.57
2022-10-29T23:06:26.271Z,5.30
2022-10-29T23:08:56.711Z,5.77
2022-10-29T23:11:26.609Z,6.10
2022-10-29T23:14:03.598Z,6.17
2022-10-29T23:16:32.663Z,6.60
2022-10-29T23:19:02.642Z,6.20
2022-10-29T23:21:29.849Z,6.20
2022-10-29T23:23:57.758Z,6.67
2022-10-29T23:26:25.754Z,6.37
2022-10-29T23:28:52.550Z,6.10
2022-10-29T23:31:25.697Z,6.77
2022-10-29T23:33:55.071Z,7.30
2022-10-29T23:36:24.396Z,6.57
2022-10-29T23:38:59.867Z,6.57
2022-10-29T23:41:30.978Z,6.83
2022-10-29T23:43:58.338Z,7.70
2022-10-29T23:46:25.163Z,6.40
2022-10-29T23:48:51.985Z,6.90
2022-10-29T23:51:19.109Z,6.80
2022-10-29T23:53:45.972Z,6.70
2022-10-29T23:56:12.742Z,6.63
2022-10-29T23:58:39.507Z,7.00
